createdAt,value
2022-08-14T00:02:31.367Z,99825.55
2022-08-14T00:05:00.294Z,99827.92
2022-08-14T00:07:28.807Z,99829.16
2022-08-14T00:10:49.411Z,99827.59
2022-08-14T00:12:56.772Z,99832.13
2022-08-14T00:15:43.587Z,99830.91
2022-08-14T00:18:30.855Z,99830.17
2022-08-14T00:21:11.140Z,99825.33
2022-08-14T00:23:41.139Z,99826.81
2022-08-14T00:26:23.050Z,99825.55
2022-08-14T00:28:54.184Z,99822.30
2022-08-14T00:31:35.100Z,99824.30
2022-08-14T00:34:36.957Z,99821.91
2022-08-14T00:37:00.468Z,99821.73
2022-08-14T00:39:30.430Z,99829.11
2022-08-14T00:41:59.018Z,99830.48
2022-08-14T00:44:32.505Z,99831.84
2022-08-14T00:47:10.581Z,99830.88
2022-08-14T00:49:43.128Z,99831.72
2022-08-14T00:52:17.871Z,99829.84
2022-08-14T00:54:58.492Z,99829.05
2022-08-14T00:57:32.122Z,99828.54
2022-08-14T01:00:00.942Z,99831.53
2022-08-14T01:02:31.840Z,99832.69
2022-08-14T01:05:07.815Z,99835.02
2022-08-14T01:07:47.188Z,99830.10
2022-08-14T01:10:22.542Z,99830.62
2022-08-14T01:12:51.938Z,99833.86
2022-08-14T01:15:31.526Z,99836.91
2022-08-14T01:18:30.873Z,99838.15
2022-08-14T01:21:03.802Z,99837.35
2022-08-14T01:23:41.924Z,99840.27
2022-08-14T01:26:23.364Z,99844.15
2022-08-14T01:29:05.966Z,99841.91
2022-08-14T01:31:50.271Z,99841.62
2022-08-14T01:35:17.243Z,99836.73
2022-08-14T01:37:10.875Z,99836.42
2022-08-14T01:39:39.909Z,99842.24
2022-08-14T01:42:09.170Z,99842.34
2022-08-14T01:44:58.775Z,99838.40
2022-08-14T01:47:37.074Z,99841.86
2022-08-14T01:50:09.227Z,99838.48
2022-08-14T01:52:58.613Z,99836.84
2022-08-14T01:55:32.528Z,99833.09
2022-08-14T01:58:18.673Z,99838.27
2022-08-14T02:00:55.404Z,99839.09
2022-08-14T02:03:31.100Z,99833.87
2022-08-14T02:06:03.898Z,99829.35
2022-08-14T02:08:53.300Z,99820.65
2022-08-14T02:11:25.780Z,99813.23
2022-08-14T02:14:09.247Z,99812.48
2022-08-14T02:16:48.344Z,99810.48
2022-08-14T02:19:25.873Z,99811.14
2022-08-14T02:22:02.874Z,99810.48
2022-08-14T02:24:40.439Z,99806.53
2022-08-14T02:28:24.170Z,99803.27
2022-08-14T02:30:02.852Z,99803.83
2022-08-14T02:32:36.806Z,99801.46
2022-08-14T02:35:13.966Z,99801.75
2022-08-14T02:37:48.459Z,99806.32
2022-08-14T02:40:19.530Z,99804.20
2022-08-14T02:42:54.739Z,99798.06
2022-08-14T02:45:33.279Z,99802.29
2022-08-14T02:48:10.215Z,99805.56
2022-08-14T02:50:40.203Z,99809.58
2022-08-14T02:53:11.697Z,99808.16
2022-08-14T02:55:44.166Z,99807.59
2022-08-14T02:58:12.583Z,99806.23
2022-08-14T03:00:58.436Z,99804.48
2022-08-14T03:03:27.731Z,99806.99
2022-08-14T03:06:00.685Z,99807.69
2022-08-14T03:08:32.281Z,99809.52
2022-08-14T03:11:02.760Z,99809.17
2022-08-14T03:13:32.837Z,99807.51
2022-08-14T03:16:01.812Z,99805.88
2022-08-14T03:18:45.115Z,99809.49
2022-08-14T03:21:18.973Z,99808.64
2022-08-14T03:23:51.156Z,99812.58
2022-08-14T03:26:30.371Z,99810.30
2022-08-14T03:29:01.156Z,99811.20
2022-08-14T03:31:30.564Z,99809.02
2022-08-14T03:33:59.828Z,99807.23
2022-08-14T03:37:37.371Z,99802.23
2022-08-14T03:39:22.486Z,99802.80
2022-08-14T03:42:00.004Z,99806.88
2022-08-14T03:45:18.800Z,99809.57
2022-08-14T03:47:20.893Z,99810.81
2022-08-14T03:49:50.238Z,99811.41
2022-08-14T03:52:38.368Z,99813.08
2022-08-14T03:55:12.571Z,99810.20
2022-08-14T03:57:42.656Z,99807.05
2022-08-14T04:00:40.644Z,99807.05
2022-08-14T04:03:07.801Z,99800.26
2022-08-14T04:05:43.353Z,99798.17
2022-08-14T04:08:29.001Z,99798.41
2022-08-14T04:11:01.031Z,99797.98
2022-08-14T04:13:34.488Z,99797.02
2022-08-14T04:16:06.839Z,99797.52
2022-08-14T04:18:43.763Z,99796.28
2022-08-14T04:21:14.923Z,99798.23
2022-08-14T04:23:56.915Z,99800.20
2022-08-14T04:26:43.110Z,99804.59
2022-08-14T04:29:16.112Z,99808.39
2022-08-14T04:32:58.174Z,99805.74
2022-08-14T04:34:41.822Z,99802.98
2022-08-14T04:37:29.170Z,99801.81
2022-08-14T04:40:15.882Z,99801.88
2022-08-14T04:43:02.482Z,99804.11
2022-08-14T04:45:36.489Z,99801.02
2022-08-14T04:48:40.011Z,99803.20
2022-08-14T04:51:06.513Z,99812.69
2022-08-14T04:53:41.084Z,99817.23
2022-08-14T04:56:31.353Z,99813.39
2022-08-14T04:59:10.195Z,99813.98
2022-08-14T05:01:48.749Z,99811.46
2022-08-14T05:04:23.000Z,99808.66
2022-08-14T05:06:55.097Z,99809.08
2022-08-14T05:09:29.040Z,99805.73
2022-08-14T05:13:10.481Z,99806.10
2022-08-14T05:14:54.623Z,99807.05
2022-08-14T05:17:32.033Z,99810.48
2022-08-14T05:21:04.333Z,99813.73
2022-08-14T05:23:03.657Z,99811.70
2022-08-14T05:25:33.688Z,99813.63
2022-08-14T05:28:19.025Z,99813.13
2022-08-14T05:31:01.923Z,99812.15
2022-08-14T05:33:34.807Z,99813.70
2022-08-14T05:36:16.897Z,99813.39
2022-08-14T05:38:47.787Z,99807.59
2022-08-14T05:41:19.323Z,99803.02
2022-08-14T05:43:48.772Z,99803.48
2022-08-14T05:46:23.071Z,99805.15
2022-08-14T05:48:57.291Z,99801.20
2022-08-14T05:51:28.924Z,99794.70
2022-08-14T05:54:11.327Z,99794.12
2022-08-14T05:56:41.933Z,99793.34
2022-08-14T05:59:11.331Z,99794.56
2022-08-14T06:01:39.811Z,99794.90
2022-08-14T06:04:08.294Z,99793.64
2022-08-14T06:06:38.492Z,99799.54
2022-08-14T06:09:10.004Z,99801.39
2022-08-14T06:11:38.733Z,99802.90
2022-08-14T06:14:21.169Z,99800.21
2022-08-14T06:16:53.228Z,99798.02
2022-08-14T06:19:23.213Z,99798.52
2022-08-14T06:21:59.202Z,99803.77
2022-08-14T06:24:30.789Z,99801.61
2022-08-14T06:27:06.220Z,99803.88
2022-08-14T06:29:39.497Z,99799.23
2022-08-14T06:32:37.502Z,99798.63
2022-08-14T06:35:04.466Z,99797.06
2022-08-14T06:37:52.493Z,99793.14
2022-08-14T06:40:26.160Z,99795.92
2022-08-14T06:43:06.905Z,99796.95
2022-08-14T06:45:38.633Z,99799.64
2022-08-14T06:48:33.325Z,99798.91
2022-08-14T06:51:04.029Z,99790.33
2022-08-14T06:53:33.894Z,99796.80
2022-08-14T06:56:02.605Z,99796.65
2022-08-14T06:58:32.935Z,99799.92
2022-08-14T07:01:27.000Z,99800.54
2022-08-14T07:04:23.769Z,99785.52
2022-08-14T07:06:55.566Z,99785.15
2022-08-14T07:09:43.923Z,99788.16
2022-08-14T07:12:56.213Z,99785.84
2022-08-14T07:15:07.747Z,99786.02
2022-08-14T07:17:52.163Z,99783.92
2022-08-14T07:20:30.821Z,99780.20
2022-08-14T07:23:08.390Z,99780.41
2022-08-14T07:25:40.121Z,99776.16
2022-08-14T07:28:20.891Z,99774.02
2022-08-14T07:30:52.437Z,99774.33
2022-08-14T07:33:24.821Z,99769.16
2022-08-14T07:36:26.482Z,99769.02
2022-08-14T07:38:53.286Z,99762.83
2022-08-14T07:41:21.730Z,99759.14
2022-08-14T07:43:55.767Z,99757.23
2022-08-14T07:46:28.612Z,99765.55
2022-08-14T07:48:58.996Z,99765.02
2022-08-14T07:51:34.365Z,99769.58
2022-08-14T07:54:11.164Z,99772.09
2022-08-14T07:56:47.338Z,99773.98
2022-08-14T07:59:18.774Z,99772.73
2022-08-14T08:01:48.184Z,99774.58
2022-08-14T08:04:27.132Z,99768.15
2022-08-14T08:06:56.239Z,99768.61
2022-08-14T08:09:32.157Z,99761.45
2022-08-14T08:12:09.396Z,99762.67
2022-08-14T08:14:56.470Z,99754.23
2022-08-14T08:17:34.811Z,99756.25
2022-08-14T08:20:11.504Z,99752.50
2022-08-14T08:22:48.056Z,99752.56
2022-08-14T08:25:19.317Z,99744.96
2022-08-14T08:27:58.411Z,99744.73
2022-08-14T08:30:29.077Z,99747.79
2022-08-14T08:33:01.430Z,99740.56
2022-08-14T08:35:46.875Z,99732.45
2022-08-14T08:39:16.568Z,99731.77
2022-08-14T08:41:12.962Z,99733.20
2022-08-14T08:43:46.932Z,99727.23
2022-08-14T08:46:23.546Z,99726.50
2022-08-14T08:52:04.634Z,99720.09
2022-08-14T08:54:33.301Z,99717.71
2022-08-14T08:57:04.053Z,99716.89
2022-08-14T08:59:35.488Z,99712.80
2022-08-14T09:02:10.804Z,99716.54
2022-08-14T09:04:45.516Z,99712.55
2022-08-14T09:07:28.673Z,99711.11
2022-08-14T09:09:59.172Z,99700.08
2022-08-14T09:12:31.481Z,99702.27
2022-08-14T09:15:11.478Z,99693.53
2022-08-14T09:17:44.197Z,99692.16
2022-08-14T09:20:29.468Z,99693.40
2022-08-14T09:22:59.787Z,99692.71
2022-08-14T09:26:01.477Z,99693.58
2022-08-14T09:28:20.234Z,99684.35
2022-08-14T09:30:56.141Z,99680.96
2022-08-14T09:34:01.631Z,99682.02
2022-08-14T09:37:03.534Z,99679.26
2022-08-14T09:39:54.832Z,99676.32
2022-08-14T09:42:35.216Z,99669.05
2022-08-14T09:45:53.012Z,99665.98
2022-08-14T09:48:27.449Z,99654.95
2022-08-14T09:54:17.790Z,99651.98
2022-08-14T09:56:56.659Z,99653.67
2022-08-14T09:59:28.259Z,99661.61
2022-08-14T10:02:01.343Z,99664.98
2022-08-14T10:04:33.890Z,99662.30
2022-08-14T10:07:08.546Z,99661.06
2022-08-14T10:09:57.679Z,99655.40
2022-08-14T10:12:52.880Z,99648.44
2022-08-14T10:15:27.839Z,99636.55
2022-08-14T10:18:18.456Z,99643.39
2022-08-14T10:21:00.965Z,99640.25
2022-08-14T10:23:43.161Z,99636.77
2022-08-14T10:26:22.468Z,99636.14
2022-08-14T10:29:18.541Z,99631.20
2022-08-14T10:31:59.459Z,99625.98
2022-08-14T10:34:42.091Z,99620.06
2022-08-14T10:37:17.253Z,99611.30
2022-08-14T10:40:10.365Z,99610.80
2022-08-14T10:42:51.938Z,99604.52
2022-08-14T10:45:34.033Z,99607.30
2022-08-14T10:48:24.544Z,99603.21
2022-08-14T10:51:08.504Z,99599.40
2022-08-14T10:53:39.319Z,99595.30
2022-08-14T10:56:21.656Z,99588.96
2022-08-14T10:59:08.803Z,99587.28
2022-08-14T11:01:41.549Z,99581.02
2022-08-14T11:04:30.748Z,99575.38
2022-08-14T11:06:59.555Z,99570.84
2022-08-14T11:09:31.729Z,99555.48
2022-08-14T11:12:33.845Z,99552.06
2022-08-14T11:14:59.580Z,99558.19
2022-08-14T11:17:37.824Z,99553.27
2022-08-14T11:20:13.977Z,99558.13
2022-08-14T11:23:03.017Z,99552.88
2022-08-14T11:25:43.895Z,99544.25
2022-08-14T11:28:18.965Z,99536.25
2022-08-14T11:30:53.801Z,99525.45
2022-08-14T11:33:25.503Z,99518.86
2022-08-14T11:35:59.544Z,99518.81
2022-08-14T11:38:46.017Z,99515.41
2022-08-14T11:41:17.238Z,99511.23
2022-08-14T11:43:55.926Z,99512.81
2022-08-14T11:46:30.330Z,99517.31
2022-08-14T11:49:06.788Z,99524.69
2022-08-14T11:51:53.053Z,99527.34
2022-08-14T11:54:33.731Z,99520.21
2022-08-14T11:57:05.854Z,99507.00
2022-08-14T11:59:34.278Z,99499.89
2022-08-14T12:03:00.214Z,99496.10
2022-08-14T12:05:17.431Z,99490.75
2022-08-14T12:07:51.483Z,99491.39
2022-08-14T12:10:26.750Z,99497.22
2022-08-14T12:13:17.818Z,99519.77
2022-08-14T12:16:01.097Z,99554.28
2022-08-14T12:18:42.750Z,99581.95
2022-08-14T12:21:19.256Z,99608.39
2022-08-14T12:24:05.696Z,99632.55
2022-08-14T12:26:40.942Z,99653.06
2022-08-14T12:29:16.723Z,99636.98
2022-08-14T12:31:46.930Z,99619.33
2022-08-14T12:34:20.297Z,99601.53
2022-08-14T12:36:49.385Z,99601.88
2022-08-14T12:39:23.803Z,99584.12
2022-08-14T12:42:01.565Z,99581.36
2022-08-14T12:44:39.101Z,99584.54
2022-08-14T12:47:17.196Z,99574.15
2022-08-14T12:49:54.334Z,99568.45
2022-08-14T12:52:43.177Z,99568.52
2022-08-14T12:55:21.611Z,99568.02
2022-08-14T12:57:53.415Z,99574.64
2022-08-14T13:00:25.605Z,99579.77
2022-08-14T13:02:56.869Z,99590.13
2022-08-14T13:05:30.313Z,99606.55
2022-08-14T13:08:03.850Z,99621.64
2022-08-14T13:10:51.113Z,99620.63
2022-08-14T13:13:21.337Z,99615.95
2022-08-14T13:15:57.176Z,99602.23
2022-08-14T13:18:30.154Z,99599.77
2022-08-14T13:21:02.594Z,99586.69
2022-08-14T13:23:38.930Z,99577.92
2022-08-14T13:26:07.659Z,99573.30
2022-08-14T13:29:01.489Z,99575.86
2022-08-14T13:31:32.476Z,99574.45
2022-08-14T13:34:04.568Z,99581.85
2022-08-14T13:36:51.533Z,99579.55
2022-08-14T13:39:26.482Z,99578.86
2022-08-14T13:41:56.155Z,99582.91
2022-08-14T13:44:27.832Z,99580.16
2022-08-14T13:46:58.190Z,99580.92
2022-08-14T13:49:29.269Z,99581.11
2022-08-14T13:51:59.115Z,99581.69
2022-08-14T13:54:31.383Z,99577.33
2022-08-14T13:57:03.869Z,99585.39
2022-08-14T13:59:37.689Z,99586.42
2022-08-14T14:02:08.618Z,99576.91
2022-08-14T14:04:49.381Z,99573.84
2022-08-14T14:07:23.414Z,99577.40
2022-08-14T14:09:56.593Z,99578.94
2022-08-14T14:12:49.103Z,99569.01
2022-08-14T14:15:20.199Z,99547.98
2022-08-14T14:17:59.715Z,99548.08
2022-08-14T14:20:35.489Z,99551.35
2022-08-14T14:23:11.776Z,99572.54
2022-08-14T14:25:51.079Z,99591.00
2022-08-14T14:28:32.215Z,99605.24
2022-08-14T14:31:05.980Z,99610.65
2022-08-14T14:33:51.891Z,99630.13
2022-08-14T14:36:26.783Z,99683.14
2022-08-14T14:39:02.403Z,99707.81
2022-08-14T14:41:37.699Z,99722.28
2022-08-14T14:44:16.028Z,99724.55
2022-08-14T14:46:50.953Z,99731.13
2022-08-14T14:49:31.942Z,99735.59
2022-08-14T14:52:23.154Z,99723.75
2022-08-14T14:54:52.865Z,99703.47
2022-08-14T14:57:21.499Z,99704.45
2022-08-14T14:59:50.002Z,99692.87
2022-08-14T15:02:36.911Z,99697.92
2022-08-14T15:05:08.268Z,99717.85
2022-08-14T15:07:37.998Z,99730.11
2022-08-14T15:10:27.394Z,99730.10
2022-08-14T15:13:00.175Z,99707.83
2022-08-14T15:15:28.821Z,99695.80
2022-08-14T15:18:01.781Z,99699.08
2022-08-14T15:20:31.497Z,99710.30
2022-08-14T15:23:11.669Z,99719.14
2022-08-14T15:25:44.006Z,99724.45
2022-08-14T15:28:21.858Z,99727.53
2022-08-14T15:30:58.978Z,99730.33
2022-08-14T15:34:01.004Z,99733.34
2022-08-14T15:36:36.075Z,99741.70
2022-08-14T15:39:05.462Z,99755.86
2022-08-14T15:41:41.907Z,99773.98
2022-08-14T15:44:25.486Z,99788.03
2022-08-14T15:46:58.328Z,99792.05
2022-08-14T15:49:34.678Z,99793.70
2022-08-14T15:52:05.279Z,99792.48
2022-08-14T15:54:36.748Z,99787.86
2022-08-14T15:57:10.312Z,99792.27
2022-08-14T15:59:58.690Z,99791.52
2022-08-14T16:02:28.108Z,99803.03
2022-08-14T16:04:56.848Z,99807.95
2022-08-14T16:07:27.263Z,99802.42
2022-08-14T16:10:27.226Z,99799.16
2022-08-14T16:12:47.868Z,99784.59
2022-08-14T16:15:17.216Z,99786.46
2022-08-14T16:17:46.818Z,99780.40
2022-08-14T16:20:41.611Z,99782.89
2022-08-14T16:23:08.735Z,99772.27
2022-08-14T16:25:44.102Z,99765.48
2022-08-14T16:28:13.483Z,99748.13
2022-08-14T16:30:56.387Z,99734.67
2022-08-14T16:33:56.859Z,99723.03
2022-08-14T16:36:31.412Z,99705.51
2022-08-14T16:39:03.503Z,99676.06
2022-08-14T16:41:32.007Z,99666.47
2022-08-14T16:44:22.156Z,99666.30
2022-08-14T16:47:05.486Z,99674.98
2022-08-14T16:50:03.283Z,99662.52
2022-08-14T16:52:25.963Z,99680.31
2022-08-14T16:55:14.281Z,99679.88
2022-08-14T16:57:51.507Z,99687.22
2022-08-14T17:00:43.892Z,99698.56
2022-08-14T17:03:13.712Z,99697.98
2022-08-14T17:05:46.898Z,99700.84
2022-08-14T17:08:33.502Z,99712.02
2022-08-14T17:11:10.281Z,99722.61
2022-08-14T17:13:58.488Z,99728.95
2022-08-14T17:16:37.873Z,99739.16
2022-08-14T17:19:13.580Z,99750.77
2022-08-14T17:21:46.867Z,99758.39
2022-08-14T17:24:56.537Z,99740.95
2022-08-14T17:27:10.256Z,99744.02
2022-08-14T17:29:44.469Z,99738.81
2022-08-14T17:32:29.902Z,99740.25
2022-08-14T17:35:16.381Z,99747.65
2022-08-14T17:37:56.006Z,99753.83
2022-08-14T17:40:31.231Z,99753.40
2022-08-14T17:43:01.848Z,99748.70
2022-08-14T17:45:41.489Z,99753.11
2022-08-14T17:49:09.879Z,99748.61
2022-08-14T17:51:24.196Z,99744.16
2022-08-14T17:54:02.777Z,99738.02
2022-08-14T17:56:33.964Z,99730.19
2022-08-14T17:59:05.805Z,99733.50
2022-08-14T18:01:46.084Z,99732.48
2022-08-14T18:04:24.860Z,99728.75
2022-08-14T18:07:09.941Z,99715.61
2022-08-14T18:09:57.439Z,99719.27
2022-08-14T18:12:36.968Z,99728.16
2022-08-14T18:15:19.205Z,99723.98
2022-08-14T18:17:53.051Z,99725.23
2022-08-14T18:21:24.841Z,99725.63
2022-08-14T18:23:14.697Z,99731.64
2022-08-14T18:25:53.241Z,99737.87
2022-08-14T18:28:51.022Z,99745.95
2022-08-14T18:31:23.255Z,99753.02
2022-08-14T18:33:58.366Z,99751.66
2022-08-14T18:36:57.668Z,99753.38
2022-08-14T18:40:01.957Z,99758.26
2022-08-14T18:42:30.277Z,99762.08
2022-08-14T18:45:00.963Z,99753.94
2022-08-14T18:47:56.552Z,99752.45
2022-08-14T18:50:31.106Z,99748.73
2022-08-14T18:53:08.995Z,99750.79
2022-08-14T18:55:53.389Z,99746.62
2022-08-14T18:58:47.877Z,99742.21
2022-08-14T19:01:33.420Z,99735.36
2022-08-14T19:04:04.067Z,99738.77
2022-08-14T19:06:55.906Z,99741.80
2022-08-14T19:09:56.263Z,99741.52
2022-08-14T19:12:53.871Z,99727.82
2022-08-14T19:15:31.541Z,99720.17
2022-08-14T19:18:13.953Z,99712.59
2022-08-14T19:20:58.199Z,99714.45
2022-08-14T19:23:42.036Z,99720.83
2022-08-14T19:26:54.267Z,99729.11
2022-08-14T19:29:25.928Z,99729.61
2022-08-14T19:31:59.510Z,99740.02
2022-08-14T19:34:52.732Z,99751.56
2022-08-14T19:37:54.101Z,99759.41
2022-08-14T19:40:34.082Z,99750.86
2022-08-14T19:43:06.373Z,99744.60
2022-08-14T19:45:36.153Z,99740.52
2022-08-14T19:48:14.290Z,99734.94
2022-08-14T19:50:46.457Z,99735.30
2022-08-14T19:53:17.061Z,99730.31
2022-08-14T19:56:02.437Z,99719.34
2022-08-14T19:58:55.426Z,99710.27
2022-08-14T20:01:36.431Z,99706.80
2022-08-14T20:04:45.477Z,99708.63
2022-08-14T20:07:04.230Z,99718.21
2022-08-14T20:11:03.671Z,99729.27
2022-08-14T20:12:35.552Z,99728.30
2022-08-14T20:15:46.739Z,99720.98
2022-08-14T20:18:49.091Z,99717.02
2022-08-14T20:21:16.070Z,99721.49
2022-08-14T20:23:48.270Z,99724.98
2022-08-14T20:26:32.050Z,99718.19
2022-08-14T20:29:06.998Z,99714.41
2022-08-14T20:31:38.450Z,99711.58
2022-08-14T20:34:24.456Z,99708.90
2022-08-14T20:37:04.481Z,99703.79
2022-08-14T20:39:37.582Z,99702.61
2022-08-14T20:42:31.337Z,99701.75
2022-08-14T20:45:24.229Z,99701.02
2022-08-14T20:48:02.701Z,99708.42
2022-08-14T20:50:36.922Z,99707.84
2022-08-14T20:53:27.583Z,99711.71
2022-08-14T20:56:00.536Z,99706.41
2022-08-14T20:58:38.803Z,99703.06
2022-08-14T21:01:32.675Z,99703.33
2022-08-14T21:04:04.957Z,99708.05
2022-08-14T21:07:22.969Z,99709.42
2022-08-14T21:09:43.835Z,99712.56
2022-08-14T21:12:34.324Z,99714.29
2022-08-14T21:15:11.288Z,99717.98
2022-08-14T21:17:43.390Z,99716.30
2022-08-14T21:20:26.304Z,99708.81
2022-08-14T21:23:00.404Z,99701.48
2022-08-14T21:25:32.189Z,99702.23
2022-08-14T21:28:08.811Z,99702.02
2022-08-14T21:30:57.752Z,99705.42
2022-08-14T21:33:26.352Z,99708.04
2022-08-14T21:36:00.109Z,99711.52
2022-08-14T21:38:38.700Z,99707.51
2022-08-14T21:41:42.534Z,99706.02
2022-08-14T21:44:17.150Z,99708.54
2022-08-14T21:46:54.764Z,99709.35
2022-08-14T21:49:33.777Z,99707.98
2022-08-14T21:52:50.980Z,99714.70
2022-08-14T21:55:09.471Z,99722.67
2022-08-14T21:58:46.214Z,99726.71
2022-08-14T22:00:42.539Z,99727.85
2022-08-14T22:03:24.249Z,99732.56
2022-08-14T22:05:56.166Z,99737.16
2022-08-14T22:08:26.858Z,99742.30
2022-08-14T22:10:56.579Z,99747.70
2022-08-14T22:13:26.964Z,99754.94
2022-08-14T22:16:02.314Z,99748.90
2022-08-14T22:18:31.347Z,99750.46
2022-08-14T22:21:05.956Z,99746.89
2022-08-14T22:23:36.634Z,99753.30
2022-08-14T22:26:06.940Z,99748.19
2022-08-14T22:28:35.655Z,99741.46
2022-08-14T22:31:10.883Z,99741.00
2022-08-14T22:33:40.407Z,99739.97
2022-08-14T22:36:34.236Z,99743.75
2022-08-14T22:39:11.038Z,99729.30
2022-08-14T22:41:42.412Z,99712.50
2022-08-14T22:44:21.678Z,99701.73
2022-08-14T22:46:51.335Z,99703.61
2022-08-14T22:50:32.770Z,99701.66
2022-08-14T22:52:31.719Z,99703.33
2022-08-14T22:55:05.805Z,99703.83
2022-08-14T22:57:37.794Z,99697.53
2022-08-14T23:00:25.613Z,99692.33
2022-08-14T23:03:03.002Z,99691.17
2022-08-14T23:05:38.844Z,99696.46
2022-08-14T23:09:01.517Z,99702.09
2022-08-14T23:11:03.021Z,99706.89
2022-08-14T23:13:33.097Z,99713.66
2022-08-14T23:16:01.603Z,99722.17
2022-08-14T23:18:30.616Z,99731.81
2022-08-14T23:20:58.946Z,99736.43
2022-08-14T23:23:27.866Z,99741.21
2022-08-14T23:26:00.145Z,99737.67
2022-08-14T23:28:56.602Z,99737.98
2022-08-14T23:31:35.673Z,99738.67
2022-08-14T23:34:12.219Z,99739.09
2022-08-14T23:36:55.702Z,99738.10
2022-08-14T23:39:34.603Z,99731.13
2022-08-14T23:42:08.818Z,99727.05
2022-08-14T23:44:38.856Z,99723.85
2022-08-14T23:47:11.880Z,99719.81
2022-08-14T23:50:01.400Z,99715.92
2022-08-14T23:52:55.680Z,99716.41
2022-08-14T23:55:32.557Z,99720.17
2022-08-14T23:58:01.014Z,99716.38
